NOZ1151 ENBR-ENVA
Flight info
| Callsign | NOZ1151 |
|---|---|
| Flight time | 0h 48m |
| Altitude | 35000 |
| Route | INTUM DCT NELSU |
| Aircraft | B738/M-SDE2E3FGHIRWXY/LB1 |
Departure
| Time | 2026-05-06 17:45 |
|---|---|
| Airport | Bergen Airport, Flesland (ENBR) |
Arrival
| Time | 2026-05-06 18:34 |
|---|---|
| Airport | Trondheim Airport, Værnes (ENVA) |
| Time | Latitude | Longitude | Altitude | Speed | Heading |
|---|---|---|---|---|---|
| 2026-05-06 16:54 | 60.29004 | 5.22708 | 150 ft | 0 kts | 210° |
| 2026-05-06 16:56 | 60.28892 | 5.22532 | 149 ft | 0 kts | 102° |
| 2026-05-06 17:30 | 60.28894 | 5.22514 | 149 ft | 2 kts | 98° |
| 2026-05-06 17:30 | 60.28896 | 5.22481 | 149 ft | 2 kts | 89° |
| 2026-05-06 17:31 | 60.28893 | 5.22449 | 149 ft | 2 kts | 75° |
| 2026-05-06 17:31 | 60.28892 | 5.22439 | 149 ft | 0 kts | 78° |
| 2026-05-06 17:35 | 60.28897 | 5.22442 | 149 ft | 1 kts | 23° |
| 2026-05-06 17:36 | 60.28939 | 5.22312 | 150 ft | 12 kts | 285° |
| 2026-05-06 17:36 | 60.29027 | 5.22245 | 150 ft | 15 kts | 352° |
| 2026-05-06 17:36 | 60.29111 | 5.22218 | 151 ft | 12 kts | 351° |
| 2026-05-06 17:36 | 60.29203 | 5.22186 | 152 ft | 14 kts | 350° |
| 2026-05-06 17:37 | 60.29309 | 5.22149 | 153 ft | 16 kts | 350° |
| 2026-05-06 17:37 | 60.29424 | 5.22110 | 154 ft | 17 kts | 351° |
| 2026-05-06 17:37 | 60.29544 | 5.22069 | 155 ft | 18 kts | 350° |
| 2026-05-06 17:37 | 60.29663 | 5.22029 | 158 ft | 18 kts | 350° |
| 2026-05-06 17:38 | 60.29784 | 5.21987 | 157 ft | 18 kts | 350° |
| 2026-05-06 17:38 | 60.29912 | 5.21945 | 158 ft | 19 kts | 350° |
| 2026-05-06 17:38 | 60.30040 | 5.21902 | 159 ft | 19 kts | 350° |
| 2026-05-06 17:38 | 60.30168 | 5.21859 | 160 ft | 19 kts | 351° |
| 2026-05-06 17:39 | 60.30288 | 5.21819 | 161 ft | 15 kts | 350° |
| 2026-05-06 17:39 | 60.30394 | 5.21783 | 162 ft | 16 kts | 351° |
| 2026-05-06 17:39 | 60.30475 | 5.21756 | 163 ft | 0 kts | 350° |
| 2026-05-06 17:40 | 60.30497 | 5.21749 | 163 ft | 7 kts | 350° |
| 2026-05-06 17:40 | 60.30571 | 5.21724 | 164 ft | 14 kts | 351° |
| 2026-05-06 17:41 | 60.30633 | 5.21700 | 164 ft | 0 kts | 340° |
| 2026-05-06 17:42 | 60.30633 | 5.21699 | 164 ft | 1 kts | 340° |
| 2026-05-06 17:42 | 60.30646 | 5.21684 | 165 ft | 5 kts | 326° |
| 2026-05-06 17:43 | 60.30664 | 5.21600 | 165 ft | 8 kts | 266° |
| 2026-05-06 17:43 | 60.30662 | 5.21570 | 165 ft | 0 kts | 259° |
| 2026-05-06 17:43 | 60.30657 | 5.21522 | 165 ft | 8 kts | 259° |
| 2026-05-06 17:44 | 60.30633 | 5.21392 | 167 ft | 11 kts | 212° |
| 2026-05-06 17:44 | 60.30574 | 5.21403 | 166 ft | 12 kts | 169° |
| 2026-05-06 17:44 | 60.30466 | 5.21439 | 162 ft | 25 kts | 171° |
| 2026-05-06 17:44 | 60.30048 | 5.21579 | 160 ft | 96 kts | 170° |
| 2026-05-06 17:45 | 60.29172 | 5.21873 | 155 ft | 157 kts | 171° |
| 2026-05-06 17:45 | 60.28040 | 5.22242 | 715 ft | 164 kts | 174° |
| 2026-05-06 17:45 | 60.26880 | 5.22574 | 1424 ft | 176 kts | 174° |
| 2026-05-06 17:45 | 60.25565 | 5.22968 | 1710 ft | 205 kts | 173° |
| 2026-05-06 17:46 | 60.24081 | 5.23438 | 1960 ft | 227 kts | 173° |
| 2026-05-06 17:46 | 60.22479 | 5.23974 | 2398 ft | 240 kts | 172° |
| 2026-05-06 17:46 | 60.20751 | 5.24562 | 2830 ft | 258 kts | 172° |
| 2026-05-06 17:46 | 60.18959 | 5.25179 | 3577 ft | 262 kts | 172° |
| 2026-05-06 17:47 | 60.17155 | 5.25802 | 4402 ft | 265 kts | 173° |
| 2026-05-06 17:47 | 60.15330 | 5.26430 | 5201 ft | 267 kts | 172° |
| 2026-05-06 17:47 | 60.13490 | 5.27062 | 5803 ft | 269 kts | 173° |
| 2026-05-06 17:47 | 60.11705 | 5.28186 | 5994 ft | 275 kts | 149° |
| 2026-05-06 17:48 | 60.10368 | 5.30930 | 6014 ft | 279 kts | 120° |
| 2026-05-06 17:48 | 60.09836 | 5.34663 | 6345 ft | 283 kts | 89° |
| 2026-05-06 17:48 | 60.10252 | 5.38445 | 7191 ft | 277 kts | 62° |
| 2026-05-06 17:48 | 60.11253 | 5.41733 | 7943 ft | 278 kts | 53° |
| 2026-05-06 17:49 | 60.12361 | 5.44943 | 8641 ft | 282 kts | 53° |
| 2026-05-06 17:49 | 60.13497 | 5.48183 | 9372 ft | 285 kts | 50° |
| 2026-05-06 17:49 | 60.14987 | 5.50697 | 10033 ft | 282 kts | 19° |
| 2026-05-06 17:49 | 60.16903 | 5.51628 | 10445 ft | 292 kts | 6° |
| 2026-05-06 17:50 | 60.18983 | 5.52229 | 10616 ft | 312 kts | 5° |
| 2026-05-06 17:50 | 60.21202 | 5.52869 | 10792 ft | 332 kts | 6° |
| 2026-05-06 17:50 | 60.23529 | 5.53615 | 11232 ft | 342 kts | 6° |
| 2026-05-06 17:50 | 60.25891 | 5.54452 | 11875 ft | 347 kts | 7° |
| 2026-05-06 17:51 | 60.28277 | 5.55360 | 12551 ft | 351 kts | 7° |
| 2026-05-06 17:51 | 60.30689 | 5.56308 | 13270 ft | 355 kts | 7° |
| 2026-05-06 17:51 | 60.33119 | 5.57301 | 14011 ft | 358 kts | 7° |
| 2026-05-06 17:51 | 60.35575 | 5.58326 | 14648 ft | 364 kts | 8° |
| 2026-05-06 17:52 | 60.38073 | 5.59380 | 15247 ft | 370 kts | 7° |
| 2026-05-06 17:52 | 60.40570 | 5.60438 | 15883 ft | 373 kts | 6° |
| 2026-05-06 17:52 | 60.43117 | 5.61647 | 16496 ft | 383 kts | 11° |
| 2026-05-06 17:52 | 60.45602 | 5.63870 | 17062 ft | 399 kts | 24° |
| 2026-05-06 17:53 | 60.47952 | 5.66998 | 17643 ft | 408 kts | 27° |
| 2026-05-06 17:53 | 60.50316 | 5.70274 | 18174 ft | 415 kts | 26° |
| 2026-05-06 17:53 | 60.52708 | 5.73561 | 18712 ft | 419 kts | 26° |
| 2026-05-06 17:53 | 60.55139 | 5.76903 | 19183 ft | 425 kts | 26° |
| 2026-05-06 17:54 | 60.57601 | 5.80290 | 19653 ft | 430 kts | 26° |
| 2026-05-06 17:54 | 60.60077 | 5.83728 | 20198 ft | 432 kts | 26° |
| 2026-05-06 17:54 | 60.62587 | 5.87163 | 20800 ft | 436 kts | 26° |
| 2026-05-06 17:54 | 60.65085 | 5.90587 | 21577 ft | 433 kts | 27° |
| 2026-05-06 17:55 | 60.67602 | 5.94029 | 22046 ft | 438 kts | 26° |
| 2026-05-06 17:55 | 60.70141 | 5.97511 | 22472 ft | 443 kts | 26° |
| 2026-05-06 17:55 | 60.72716 | 6.01058 | 22825 ft | 450 kts | 26° |
| 2026-05-06 17:55 | 60.75321 | 6.04652 | 23263 ft | 454 kts | 26° |
| 2026-05-06 17:56 | 60.77947 | 6.08281 | 23690 ft | 458 kts | 26° |
| 2026-05-06 17:56 | 60.80595 | 6.11952 | 24064 ft | 461 kts | 26° |
| 2026-05-06 17:56 | 60.83258 | 6.15653 | 24471 ft | 464 kts | 26° |
| 2026-05-06 17:56 | 60.85932 | 6.19381 | 24872 ft | 466 kts | 27° |
| 2026-05-06 17:57 | 60.88620 | 6.23138 | 25257 ft | 469 kts | 27° |
| 2026-05-06 17:57 | 60.91324 | 6.26916 | 25863 ft | 466 kts | 29° |
| 2026-05-06 17:57 | 60.93985 | 6.30651 | 26505 ft | 464 kts | 29° |
| 2026-05-06 17:57 | 60.96674 | 6.34424 | 26643 ft | 472 kts | 29° |
| 2026-05-06 17:58 | 60.99399 | 6.38252 | 26880 ft | 477 kts | 29° |
| 2026-05-06 17:58 | 61.02149 | 6.42125 | 27258 ft | 479 kts | 29° |
| 2026-05-06 17:58 | 61.04903 | 6.46013 | 27643 ft | 481 kts | 29° |
| 2026-05-06 17:58 | 61.07632 | 6.49876 | 27926 ft | 484 kts | 30° |
| 2026-05-06 17:59 | 61.10421 | 6.53833 | 28207 ft | 488 kts | 30° |
| 2026-05-06 17:59 | 61.13223 | 6.57817 | 28482 ft | 490 kts | 30° |
| 2026-05-06 17:59 | 61.16037 | 6.61828 | 28770 ft | 493 kts | 30° |
| 2026-05-06 17:59 | 61.18869 | 6.65871 | 29126 ft | 494 kts | 30° |
| 2026-05-06 18:00 | 61.21698 | 6.69921 | 29563 ft | 494 kts | 30° |
| 2026-05-06 18:00 | 61.24515 | 6.73966 | 29991 ft | 493 kts | 31° |
| 2026-05-06 18:00 | 61.27338 | 6.78027 | 30300 ft | 493 kts | 31° |
| 2026-05-06 18:00 | 61.30158 | 6.82090 | 30581 ft | 493 kts | 31° |
| 2026-05-06 18:01 | 61.32973 | 6.86154 | 30899 ft | 493 kts | 31° |
| 2026-05-06 18:01 | 61.35787 | 6.90228 | 31208 ft | 492 kts | 31° |
| 2026-05-06 18:01 | 61.38592 | 6.94297 | 31525 ft | 492 kts | 31° |
| 2026-05-06 18:01 | 61.41402 | 6.98380 | 31783 ft | 492 kts | 31° |
| 2026-05-06 18:02 | 61.44210 | 7.02469 | 32047 ft | 492 kts | 31° |
| 2026-05-06 18:02 | 61.47024 | 7.06577 | 32219 ft | 495 kts | 31° |
| 2026-05-06 18:02 | 61.49857 | 7.10720 | 32432 ft | 497 kts | 31° |
| 2026-05-06 18:02 | 61.52689 | 7.14873 | 32755 ft | 496 kts | 31° |
| 2026-05-06 18:03 | 61.55503 | 7.19012 | 33132 ft | 494 kts | 31° |
| 2026-05-06 18:03 | 61.58316 | 7.23158 | 33398 ft | 494 kts | 32° |
| 2026-05-06 18:03 | 61.61132 | 7.27316 | 33619 ft | 495 kts | 32° |
| 2026-05-06 18:03 | 61.63946 | 7.31481 | 33881 ft | 495 kts | 32° |
| 2026-05-06 18:04 | 61.66757 | 7.35650 | 34146 ft | 495 kts | 32° |
| 2026-05-06 18:04 | 61.69566 | 7.39826 | 34417 ft | 493 kts | 32° |
| 2026-05-06 18:04 | 61.72370 | 7.44006 | 34690 ft | 493 kts | 32° |
| 2026-05-06 18:04 | 61.75118 | 7.48111 | 34988 ft | 490 kts | 32° |
| 2026-05-06 18:05 | 61.80723 | 7.56506 | 34984 ft | 495 kts | 32° |
| 2026-05-06 18:05 | 61.86322 | 7.64936 | 34961 ft | 491 kts | 32° |
| 2026-05-06 18:06 | 61.91837 | 7.73365 | 34970 ft | 489 kts | 36° |
| 2026-05-06 18:06 | 61.96592 | 7.83760 | 34972 ft | 492 kts | 47° |
| 2026-05-06 18:07 | 62.01050 | 7.94825 | 34992 ft | 493 kts | 47° |
| 2026-05-06 18:07 | 62.05522 | 8.05908 | 34971 ft | 494 kts | 47° |
| 2026-05-06 18:08 | 62.10044 | 8.16988 | 34954 ft | 495 kts | 47° |
| 2026-05-06 18:08 | 62.14577 | 8.28075 | 34956 ft | 496 kts | 47° |
| 2026-05-06 18:09 | 62.19106 | 8.39197 | 34960 ft | 497 kts | 47° |
| 2026-05-06 18:09 | 62.21369 | 8.44781 | 34809 ft | 496 kts | 47° |
| 2026-05-06 18:09 | 62.23626 | 8.50364 | 34339 ft | 492 kts | 47° |
| 2026-05-06 18:10 | 62.25865 | 8.55918 | 33708 ft | 493 kts | 47° |
| 2026-05-06 18:10 | 62.28096 | 8.61468 | 32996 ft | 488 kts | 47° |
| 2026-05-06 18:10 | 62.30311 | 8.66992 | 32042 ft | 488 kts | 47° |
| 2026-05-06 18:10 | 62.32497 | 8.72453 | 31042 ft | 490 kts | 47° |
| 2026-05-06 18:11 | 62.34718 | 8.78017 | 30133 ft | 490 kts | 47° |
| 2026-05-06 18:11 | 62.36205 | 8.81751 | 29730 ft | 482 kts | 47° |
| 2026-05-06 18:11 | 62.39042 | 8.88897 | 29001 ft | 466 kts | 47° |
| 2026-05-06 18:11 | 62.41125 | 8.94160 | 28435 ft | 457 kts | 47° |
| 2026-05-06 18:12 | 62.43158 | 8.99307 | 28012 ft | 445 kts | 47° |
| 2026-05-06 18:12 | 62.45141 | 9.04336 | 27522 ft | 435 kts | 47° |
| 2026-05-06 18:12 | 62.47080 | 9.09262 | 27020 ft | 426 kts | 47° |
| 2026-05-06 18:12 | 62.48996 | 9.14139 | 26597 ft | 428 kts | 47° |
| 2026-05-06 18:13 | 62.50953 | 9.19122 | 26123 ft | 440 kts | 48° |
| 2026-05-06 18:13 | 62.52941 | 9.24197 | 25630 ft | 440 kts | 48° |
| 2026-05-06 18:13 | 62.54893 | 9.29200 | 25123 ft | 432 kts | 48° |
| 2026-05-06 18:13 | 62.56820 | 9.34154 | 24651 ft | 428 kts | 48° |
| 2026-05-06 18:14 | 62.58726 | 9.39064 | 24190 ft | 424 kts | 49° |
| 2026-05-06 18:14 | 62.60617 | 9.43944 | 23720 ft | 420 kts | 49° |
| 2026-05-06 18:14 | 62.62485 | 9.48776 | 23204 ft | 416 kts | 49° |
| 2026-05-06 18:14 | 62.64336 | 9.53572 | 22698 ft | 412 kts | 49° |
| 2026-05-06 18:15 | 62.66162 | 9.58315 | 22237 ft | 406 kts | 49° |
| 2026-05-06 18:15 | 62.67360 | 9.61431 | 21931 ft | 403 kts | 49° |
| 2026-05-06 18:15 | 62.69147 | 9.66087 | 21475 ft | 399 kts | 49° |
| 2026-05-06 18:15 | 62.70911 | 9.70697 | 21032 ft | 394 kts | 50° |
| 2026-05-06 18:16 | 62.72655 | 9.75258 | 20588 ft | 389 kts | 50° |
| 2026-05-06 18:16 | 62.74375 | 9.79768 | 20146 ft | 385 kts | 50° |
| 2026-05-06 18:16 | 62.76081 | 9.84248 | 19706 ft | 381 kts | 50° |
| 2026-05-06 18:16 | 62.77764 | 9.88678 | 19264 ft | 378 kts | 50° |
| 2026-05-06 18:17 | 62.79438 | 9.93092 | 18830 ft | 375 kts | 50° |
| 2026-05-06 18:17 | 62.81092 | 9.97464 | 18395 ft | 372 kts | 50° |
| 2026-05-06 18:17 | 62.82734 | 10.01811 | 17928 ft | 369 kts | 51° |
| 2026-05-06 18:17 | 62.84361 | 10.06126 | 17492 ft | 365 kts | 51° |
| 2026-05-06 18:18 | 62.85946 | 10.10339 | 17075 ft | 362 kts | 51° |
| 2026-05-06 18:18 | 62.87535 | 10.14570 | 16654 ft | 358 kts | 51° |
| 2026-05-06 18:18 | 62.89110 | 10.18775 | 16237 ft | 355 kts | 51° |
| 2026-05-06 18:18 | 62.90668 | 10.22939 | 15828 ft | 352 kts | 51° |
| 2026-05-06 18:19 | 62.92235 | 10.27136 | 15393 ft | 350 kts | 51° |
| 2026-05-06 18:19 | 62.93772 | 10.31258 | 14992 ft | 347 kts | 51° |
| 2026-05-06 18:19 | 62.95298 | 10.35361 | 14578 ft | 346 kts | 51° |
| 2026-05-06 18:19 | 62.96794 | 10.39390 | 14180 ft | 344 kts | 51° |
| 2026-05-06 18:20 | 62.98303 | 10.43460 | 13765 ft | 343 kts | 51° |
| 2026-05-06 18:20 | 62.99822 | 10.47565 | 13334 ft | 340 kts | 51° |
| 2026-05-06 18:20 | 63.01290 | 10.51538 | 12938 ft | 338 kts | 51° |
| 2026-05-06 18:20 | 63.02763 | 10.55536 | 12556 ft | 335 kts | 51° |
| 2026-05-06 18:21 | 63.04226 | 10.59510 | 12158 ft | 333 kts | 51° |
| 2026-05-06 18:21 | 63.05679 | 10.63464 | 11762 ft | 331 kts | 51° |
| 2026-05-06 18:21 | 63.07123 | 10.67402 | 11364 ft | 329 kts | 51° |
| 2026-05-06 18:21 | 63.08557 | 10.71317 | 10983 ft | 327 kts | 51° |
| 2026-05-06 18:22 | 63.09979 | 10.75208 | 10728 ft | 321 kts | 51° |
| 2026-05-06 18:22 | 63.11361 | 10.78994 | 10593 ft | 313 kts | 51° |
| 2026-05-06 18:22 | 63.12706 | 10.82688 | 10452 ft | 305 kts | 51° |
| 2026-05-06 18:22 | 63.14016 | 10.86291 | 10326 ft | 296 kts | 51° |
| 2026-05-06 18:23 | 63.15292 | 10.89805 | 10198 ft | 289 kts | 51° |
| 2026-05-06 18:23 | 63.16532 | 10.93225 | 10089 ft | 282 kts | 51° |
| 2026-05-06 18:23 | 63.17742 | 10.96565 | 9974 ft | 274 kts | 51° |
| 2026-05-06 18:23 | 63.18929 | 10.99852 | 9720 ft | 273 kts | 51° |
| 2026-05-06 18:24 | 63.20111 | 11.03124 | 9476 ft | 271 kts | 51° |
| 2026-05-06 18:24 | 63.21283 | 11.06376 | 9219 ft | 270 kts | 51° |
| 2026-05-06 18:24 | 63.22451 | 11.09624 | 8948 ft | 268 kts | 51° |
| 2026-05-06 18:24 | 63.23611 | 11.12851 | 8702 ft | 267 kts | 51° |
| 2026-05-06 18:25 | 63.24766 | 11.16070 | 8451 ft | 266 kts | 51° |
| 2026-05-06 18:25 | 63.25914 | 11.19273 | 8199 ft | 265 kts | 51° |
| 2026-05-06 18:25 | 63.27057 | 11.22466 | 7950 ft | 263 kts | 51° |
| 2026-05-06 18:25 | 63.28193 | 11.25646 | 7696 ft | 263 kts | 51° |
| 2026-05-06 18:26 | 63.29329 | 11.28830 | 7430 ft | 263 kts | 51° |
| 2026-05-06 18:26 | 63.30466 | 11.32019 | 7164 ft | 263 kts | 51° |
| 2026-05-06 18:26 | 63.31602 | 11.35210 | 6898 ft | 264 kts | 51° |
| 2026-05-06 18:26 | 63.32740 | 11.38411 | 6643 ft | 264 kts | 50° |
| 2026-05-06 18:27 | 63.33878 | 11.41620 | 6393 ft | 264 kts | 50° |
| 2026-05-06 18:27 | 63.35004 | 11.44797 | 6254 ft | 259 kts | 50° |
| 2026-05-06 18:27 | 63.36114 | 11.47892 | 6115 ft | 252 kts | 46° |
| 2026-05-06 18:27 | 63.37518 | 11.49997 | 6025 ft | 239 kts | 14° |
| 2026-05-06 18:28 | 63.39132 | 11.50212 | 5798 ft | 233 kts | 346° |
| 2026-05-06 18:28 | 63.40599 | 11.48931 | 5545 ft | 230 kts | 324° |
| 2026-05-06 18:28 | 63.41797 | 11.46572 | 5265 ft | 230 kts | 313° |
| 2026-05-06 18:28 | 63.42942 | 11.43977 | 4954 ft | 233 kts | 313° |
| 2026-05-06 18:29 | 63.44066 | 11.41433 | 4682 ft | 229 kts | 313° |
| 2026-05-06 18:29 | 63.45138 | 11.38907 | 4376 ft | 218 kts | 305° |
| 2026-05-06 18:29 | 63.45595 | 11.35841 | 4128 ft | 203 kts | 273° |
| 2026-05-06 18:29 | 63.45687 | 11.32827 | 3999 ft | 187 kts | 274° |
| 2026-05-06 18:30 | 63.45749 | 11.29998 | 3758 ft | 180 kts | 271° |
| 2026-05-06 18:30 | 63.45767 | 11.27223 | 3492 ft | 178 kts | 271° |
| 2026-05-06 18:30 | 63.45774 | 11.24474 | 3208 ft | 175 kts | 270° |
| 2026-05-06 18:30 | 63.45756 | 11.21775 | 2940 ft | 173 kts | 270° |
| 2026-05-06 18:31 | 63.45752 | 11.19077 | 2655 ft | 174 kts | 270° |
| 2026-05-06 18:31 | 63.45756 | 11.16440 | 2377 ft | 166 kts | 270° |
| 2026-05-06 18:31 | 63.45758 | 11.13851 | 2093 ft | 164 kts | 270° |
| 2026-05-06 18:31 | 63.45748 | 11.11359 | 1852 ft | 157 kts | 269° |
| 2026-05-06 18:32 | 63.45748 | 11.08964 | 1633 ft | 149 kts | 270° |
| 2026-05-06 18:32 | 63.45750 | 11.06589 | 1415 ft | 157 kts | 269° |
| 2026-05-06 18:32 | 63.45749 | 11.04171 | 1116 ft | 153 kts | 269° |
| 2026-05-06 18:32 | 63.45753 | 11.01817 | 848 ft | 151 kts | 268° |
| 2026-05-06 18:33 | 63.45752 | 10.99494 | 628 ft | 148 kts | 268° |
| 2026-05-06 18:33 | 63.45754 | 10.97184 | 411 ft | 150 kts | 268° |
| 2026-05-06 18:33 | 63.45756 | 10.94843 | 149 ft | 150 kts | 267° |
| 2026-05-06 18:33 | 63.45755 | 10.92634 | 50 ft | 125 kts | 270° |
| 2026-05-06 18:34 | 63.45760 | 10.91185 | 43 ft | 62 kts | 270° |
| 2026-05-06 18:34 | 63.45744 | 10.90607 | 37 ft | 28 kts | 254° |
| 2026-05-06 18:34 | 63.45672 | 10.90381 | 36 ft | 16 kts | 201° |
| 2026-05-06 18:34 | 63.45653 | 10.90373 | 36 ft | 0 kts | 184° |
| 2026-05-06 18:36 | 63.45650 | 10.90373 | 35 ft | 2 kts | 184° |
| 2026-05-06 18:36 | 63.45618 | 10.90390 | 34 ft | 8 kts | 148° |
| 2026-05-06 18:36 | 63.45598 | 10.90537 | 37 ft | 13 kts | 87° |
| 2026-05-06 18:36 | 63.45597 | 10.90762 | 39 ft | 15 kts | 90° |
| 2026-05-06 18:37 | 63.45597 | 10.90995 | 40 ft | 15 kts | 89° |
| 2026-05-06 18:37 | 63.45597 | 10.91221 | 42 ft | 14 kts | 90° |
| 2026-05-06 18:37 | 63.45596 | 10.91401 | 44 ft | 9 kts | 90° |
| 2026-05-06 18:37 | 63.45574 | 10.91519 | 43 ft | 9 kts | 133° |
| 2026-05-06 18:38 | 63.45557 | 10.91619 | 46 ft | 5 kts | 103° |
| 2026-05-06 18:38 | 63.45530 | 10.91656 | 46 ft | 5 kts | 173° |
| 2026-05-06 18:38 | 63.45504 | 10.91657 | 46 ft | 0 kts | 180° |